sensor_id;sensor_type;location;lat;lon;timestamp;P1;durP1;ratioP1;P2;durP2;ratioP2
2107;SDS011;1060;52.492;13.388;2023-01-08T02:06:13;10.63;;;7.17;;
2107;SDS011;1060;52.492;13.388;2023-01-08T02:12:12;8.50;;;7.33;;
2107;SDS011;1060;52.492;13.388;2023-01-08T02:15:25;10.30;;;9.47;;
2107;SDS011;1060;52.492;13.388;2023-01-08T02:20:44;10.23;;;9.23;;
2107;SDS011;1060;52.492;13.388;2023-01-08T02:23:34;7.90;;;7.30;;
2107;SDS011;1060;52.492;13.388;2023-01-08T02:26:40;9.53;;;8.40;;
2107;SDS011;1060;52.492;13.388;2023-01-08T02:29:14;10.93;;;8.60;;
2107;SDS011;1060;52.492;13.388;2023-01-08T02:31:44;9.33;;;7.67;;
2107;SDS011;1060;52.492;13.388;2023-01-08T02:34:30;9.80;;;8.80;;
2107;SDS011;1060;52.492;13.388;2023-01-08T02:37:15;7.40;;;6.80;;
2107;SDS011;1060;52.492;13.388;2023-01-08T02:39:50;9.30;;;8.30;;
2107;SDS011;1060;52.492;13.388;2023-01-08T02:45:55;9.00;;;8.30;;
2107;SDS011;1060;52.492;13.388;2023-01-08T02:57:07;10.37;;;9.40;;
2107;SDS011;1060;52.492;13.388;2023-01-08T02:59:42;11.70;;;10.33;;
2107;SDS011;1060;52.492;13.388;2023-01-08T03:05:51;10.23;;;9.23;;
2107;SDS011;1060;52.492;13.388;2023-01-08T03:08:20;10.60;;;9.60;;
2107;SDS011;1060;52.492;13.388;2023-01-08T03:10:50;10.00;;;9.03;;
2107;SDS011;1060;52.492;13.388;2023-01-08T03:14:09;10.63;;;9.63;;
2107;SDS011;1060;52.492;13.388;2023-01-08T03:16:43;9.50;;;8.60;;
2107;SDS011;1060;52.492;13.388;2023-01-08T03:19:39;8.00;;;7.40;;
2107;SDS011;1060;52.492;13.388;2023-01-08T03:22:38;11.90;;;10.77;;
2107;SDS011;1060;52.492;13.388;2023-01-08T03:25:42;12.77;;;11.67;;
2107;SDS011;1060;52.492;13.388;2023-01-08T03:28:27;10.40;;;9.40;;
2107;SDS011;1060;52.492;13.388;2023-01-08T03:31:06;16.53;;;14.63;;
2107;SDS011;1060;52.492;13.388;2023-01-08T03:34:24;14.20;;;12.83;;
2107;SDS011;1060;52.492;13.388;2023-01-08T03:37:04;12.20;;;11.10;;
2107;SDS011;1060;52.492;13.388;2023-01-08T03:39:41;12.23;;;11.10;;
2107;SDS011;1060;52.492;13.388;2023-01-08T03:42:18;12.30;;;11.10;;
2107;SDS011;1060;52.492;13.388;2023-01-08T03:45:24;19.53;;;17.53;;
2107;SDS011;1060;52.492;13.388;2023-01-08T03:51:19;10.97;;;10.00;;
2107;SDS011;1060;52.492;13.388;2023-01-08T03:53:55;14.93;;;13.40;;
2107;SDS011;1060;52.492;13.388;2023-01-08T03:56:31;12.50;;;11.30;;
2107;SDS011;1060;52.492;13.388;2023-01-08T03:59:09;12.60;;;11.40;;
2107;SDS011;1060;52.492;13.388;2023-01-08T04:02:07;11.80;;;10.60;;
2107;SDS011;1060;52.492;13.388;2023-01-08T04:04:51;10.27;;;9.37;;
2107;SDS011;1060;52.492;13.388;2023-01-08T04:07:28;12.30;;;11.37;;
2107;SDS011;1060;52.492;13.388;2023-01-08T04:10:17;11.90;;;10.70;;
2107;SDS011;1060;52.492;13.388;2023-01-08T04:15:50;12.23;;;9.93;;
2107;SDS011;1060;52.492;13.388;2023-01-08T04:18:28;13.73;;;11.07;;
2107;SDS011;1060;52.492;13.388;2023-01-08T04:21:06;12.20;;;10.90;;
2107;SDS011;1060;52.492;13.388;2023-01-08T04:24:03;12.67;;;11.50;;
2107;SDS011;1060;52.492;13.388;2023-01-08T04:26:33;12.87;;;11.67;;
2107;SDS011;1060;52.492;13.388;2023-01-08T04:29:26;19.83;;;17.57;;
2107;SDS011;1060;52.492;13.388;2023-01-08T04:32:38;10.90;;;9.77;;
2107;SDS011;1060;52.492;13.388;2023-01-08T04:35:37;11.10;;;10.00;;
2107;SDS011;1060;52.492;13.388;2023-01-08T04:38:12;12.23;;;9.37;;
2107;SDS011;1060;52.492;13.388;2023-01-08T04:40:48;12.80;;;11.57;;
2107;SDS011;1060;52.492;13.388;2023-01-08T04:43:59;11.07;;;10.10;;
2107;SDS011;1060;52.492;13.388;2023-01-08T04:46:46;11.27;;;10.17;;
2107;SDS011;1060;52.492;13.388;2023-01-08T04:50:11;12.63;;;11.50;;
2107;SDS011;1060;52.492;13.388;2023-01-08T04:56:39;11.73;;;10.83;;
2107;SDS011;1060;52.492;13.388;2023-01-08T05:03:38;10.83;;;9.90;;
2107;SDS011;1060;52.492;13.388;2023-01-08T05:06:13;13.93;;;12.67;;
2107;SDS011;1060;52.492;13.388;2023-01-08T05:08:48;11.33;;;10.17;;
2107;SDS011;1060;52.492;13.388;2023-01-08T05:11:50;11.63;;;10.63;;
2107;SDS011;1060;52.492;13.388;2023-01-08T05:14:31;11.30;;;10.20;;
2107;SDS011;1060;52.492;13.388;2023-01-08T05:17:30;9.80;;;9.07;;
2107;SDS011;1060;52.492;13.388;2023-01-08T05:20:13;11.70;;;9.80;;
2107;SDS011;1060;52.492;13.388;2023-01-08T05:23:11;12.70;;;11.13;;
2107;SDS011;1060;52.492;13.388;2023-01-08T05:26:00;11.33;;;10.17;;
2107;SDS011;1060;52.492;13.388;2023-01-08T05:29:24;10.63;;;9.73;;
2107;SDS011;1060;52.492;13.388;2023-01-08T05:32:29;11.03;;;9.90;;
2107;SDS011;1060;52.492;13.388;2023-01-08T05:37:59;11.90;;;10.90;;
2107;SDS011;1060;52.492;13.388;2023-01-08T05:40:55;10.37;;;9.50;;
2107;SDS011;1060;52.492;13.388;2023-01-08T05:44:12;11.67;;;10.60;;
2107;SDS011;1060;52.492;13.388;2023-01-08T05:47:18;11.40;;;10.50;;
2107;SDS011;1060;52.492;13.388;2023-01-08T05:53:43;10.73;;;9.83;;
2107;SDS011;1060;52.492;13.388;2023-01-08T05:59:46;9.37;;;8.40;;
2107;SDS011;1060;52.492;13.388;2023-01-08T06:02:18;13.20;;;9.97;;
2107;SDS011;1060;52.492;13.388;2023-01-08T06:04:59;10.47;;;9.53;;
2107;SDS011;1060;52.492;13.388;2023-01-08T06:07:56;10.17;;;9.27;;
2107;SDS011;1060;52.492;13.388;2023-01-08T06:17:27;9.50;;;8.63;;
2107;SDS011;1060;52.492;13.388;2023-01-08T06:20:19;9.03;;;8.23;;
2107;SDS011;1060;52.492;13.388;2023-01-08T06:23:19;8.50;;;7.77;;
2107;SDS011;1060;52.492;13.388;2023-01-08T06:26:17;9.23;;;8.33;;
2107;SDS011;1060;52.492;13.388;2023-01-08T06:29:23;8.87;;;8.17;;
2107;SDS011;1060;52.492;13.388;2023-01-08T06:32:04;8.47;;;7.67;;
2107;SDS011;1060;52.492;13.388;2023-01-08T06:34:59;9.70;;;8.80;;
2107;SDS011;1060;52.492;13.388;2023-01-08T06:37:32;9.10;;;8.20;;
2107;SDS011;1060;52.492;13.388;2023-01-08T06:40:07;7.93;;;7.23;;
2107;SDS011;1060;52.492;13.388;2023-01-08T06:42:55;9.93;;;8.83;;
2107;SDS011;1060;52.492;13.388;2023-01-08T06:45:53;9.43;;;8.53;;
2107;SDS011;1060;52.492;13.388;2023-01-08T06:49:02;9.77;;;8.87;;
2107;SDS011;1060;52.492;13.388;2023-01-08T06:51:45;8.47;;;7.67;;
2107;SDS011;1060;52.492;13.388;2023-01-08T06:54:41;9.40;;;8.50;;
2107;SDS011;1060;52.492;13.388;2023-01-08T06:57:19;9.60;;;8.80;;
2107;SDS011;1060;52.492;13.388;2023-01-08T07:00:00;7.87;;;7.23;;
2107;SDS011;1060;52.492;13.388;2023-01-08T07:03:27;9.80;;;8.80;;
2107;SDS011;1060;52.492;13.388;2023-01-08T07:06:45;8.70;;;8.00;;
2107;SDS011;1060;52.492;13.388;2023-01-08T07:09:33;8.37;;;7.67;;
2107;SDS011;1060;52.492;13.388;2023-01-08T07:12:30;8.13;;;7.50;;
2107;SDS011;1060;52.492;13.388;2023-01-08T07:14:56;9.30;;;8.40;;
2107;SDS011;1060;52.492;13.388;2023-01-08T07:17:40;8.20;;;7.40;;
2107;SDS011;1060;52.492;13.388;2023-01-08T07:20:27;8.63;;;7.97;;
2107;SDS011;1060;52.492;13.388;2023-01-08T07:23:22;7.93;;;7.23;;
2107;SDS011;1060;52.492;13.388;2023-01-08T07:46:46;8.10;;;7.40;;
2107;SDS011;1060;52.492;13.388;2023-01-08T07:55:33;8.27;;;6.87;;
2107;SDS011;1060;52.492;13.388;2023-01-08T07:58:38;7.03;;;6.43;;
2107;SDS011;1060;52.492;13.388;2023-01-08T08:01:43;6.80;;;6.30;;
2107;SDS011;1060;52.492;13.388;2023-01-08T09:01:25;8.30;;;7.50;;
2107;SDS011;1060;52.492;13.388;2023-01-08T09:04:13;6.80;;;6.23;;
2107;SDS011;1060;52.492;13.388;2023-01-08T15:32:31;15.30;;;13.80;;
2107;SDS011;1060;52.492;13.388;2023-01-08T15:35:13;16.30;;;13.20;;
2107;SDS011;1060;52.492;13.388;2023-01-08T15:37:42;14.77;;;13.27;;
2107;SDS011;1060;52.492;13.388;2023-01-08T15:40:17;13.60;;;12.27;;
2107;SDS011;1060;52.492;13.388;2023-01-08T15:43:11;15.07;;;13.37;;
2107;SDS011;1060;52.492;13.388;2023-01-08T15:48:32;19.23;;;17.43;;
2107;SDS011;1060;52.492;13.388;2023-01-08T15:51:04;15.20;;;13.50;;
2107;SDS011;1060;52.492;13.388;2023-01-08T15:59:42;15.67;;;13.97;;
2107;SDS011;1060;52.492;13.388;2023-01-08T16:02:19;21.20;;;18.80;;
2107;SDS011;1060;52.492;13.388;2023-01-08T16:07:42;13.27;;;12.07;;
2107;SDS011;1060;52.492;13.388;2023-01-08T16:12:58;16.50;;;12.97;;
2107;SDS011;1060;52.492;13.388;2023-01-08T16:15:45;14.50;;;13.00;;
2107;SDS011;1060;52.492;13.388;2023-01-08T16:18:24;14.40;;;12.93;;
2107;SDS011;1060;52.492;13.388;2023-01-08T16:21:30;12.07;;;11.07;;
2107;SDS011;1060;52.492;13.388;2023-01-08T16:24:10;13.70;;;11.00;;
2107;SDS011;1060;52.492;13.388;2023-01-08T16:26:54;13.47;;;12.07;;
2107;SDS011;1060;52.492;13.388;2023-01-08T16:33:06;13.03;;;11.70;;
2107;SDS011;1060;52.492;13.388;2023-01-08T16:38:55;17.00;;;13.30;;
2107;SDS011;1060;52.492;13.388;2023-01-08T16:42:09;17.40;;;14.40;;
2107;SDS011;1060;52.492;13.388;2023-01-08T16:45:12;15.10;;;12.50;;
2107;SDS011;1060;52.492;13.388;2023-01-08T16:47:50;16.23;;;14.63;;
2107;SDS011;1060;52.492;13.388;2023-01-08T16:50:38;14.17;;;12.67;;
2107;SDS011;1060;52.492;13.388;2023-01-08T16:53:58;16.50;;;12.47;;
2107;SDS011;1060;52.492;13.388;2023-01-08T16:56:15;20.13;;;17.70;;
2107;SDS011;1060;52.492;13.388;2023-01-08T16:59:15;13.80;;;12.60;;
2107;SDS011;1060;52.492;13.388;2023-01-08T17:02:37;16.73;;;14.37;;
2107;SDS011;1060;52.492;13.388;2023-01-08T17:07:51;17.27;;;15.47;;
2107;SDS011;1060;52.492;13.388;2023-01-08T17:10:28;18.53;;;16.53;;
2107;SDS011;1060;52.492;13.388;2023-01-08T17:23:25;14.77;;;13.27;;
2107;SDS011;1060;52.492;13.388;2023-01-08T17:26:34;14.60;;;13.23;;
2107;SDS011;1060;52.492;13.388;2023-01-08T17:29:20;18.93;;;16.70;;
2107;SDS011;1060;52.492;13.388;2023-01-08T17:32:32;13.10;;;11.90;;
2107;SDS011;1060;52.492;13.388;2023-01-08T17:35:41;15.63;;;13.90;;
2107;SDS011;1060;52.492;13.388;2023-01-08T17:48:55;17.53;;;15.93;;
2107;SDS011;1060;52.492;13.388;2023-01-08T18:04:40;16.13;;;14.57;;
2107;SDS011;1060;52.492;13.388;2023-01-08T18:07:57;32.10;;;27.43;;
2107;SDS011;1060;52.492;13.388;2023-01-08T18:10:39;18.00;;;16.10;;
2107;SDS011;1060;52.492;13.388;2023-01-08T18:17:28;18.80;;;15.80;;
2107;SDS011;1060;52.492;13.388;2023-01-08T18:20:26;23.97;;;16.07;;
2107;SDS011;1060;52.492;13.388;2023-01-08T18:23:26;22.60;;;20.47;;
2107;SDS011;1060;52.492;13.388;2023-01-08T18:32:41;23.93;;;21.63;;
2107;SDS011;1060;52.492;13.388;2023-01-08T18:38:23;16.60;;;15.10;;
2107;SDS011;1060;52.492;13.388;2023-01-08T18:41:20;13.43;;;12.10;;
2107;SDS011;1060;52.492;13.388;2023-01-08T18:57:42;15.33;;;12.70;;
2107;SDS011;1060;52.492;13.388;2023-01-08T19:35:07;16.60;;;15.13;;
2107;SDS011;1060;52.492;13.388;2023-01-08T20:13:23;13.13;;;11.73;;
2107;SDS011;1060;52.492;13.388;2023-01-08T20:16:44;16.70;;;14.40;;
2107;SDS011;1060;52.492;13.388;2023-01-08T20:19:38;14.60;;;13.20;;
2107;SDS011;1060;52.492;13.388;2023-01-08T20:57:05;18.37;;;16.10;;
